createdAt,value
2019-01-26T00:01:42.761Z,345.88
2019-01-26T00:06:50.365Z,395.97
2019-01-26T00:11:58.057Z,344.09
2019-01-26T00:17:05.693Z,350.43
2019-01-26T00:22:13.332Z,340.74
2019-01-26T00:27:21.013Z,354.60
2019-01-26T00:32:28.653Z,392.74
2019-01-26T00:37:36.304Z,338.37
2019-01-26T00:42:43.957Z,348.92
2019-01-26T00:47:51.587Z,378.64
2019-01-26T00:52:59.242Z,335.58
2019-01-26T00:58:06.887Z,325.52
2019-01-26T01:03:14.514Z,316.33
2019-01-26T01:08:22.193Z,333.68
2019-01-26T01:13:29.833Z,279.91
2019-01-26T01:18:37.476Z,301.95
2019-01-26T01:23:45.145Z,300.02
2019-01-26T01:28:52.804Z,319.98
2019-01-26T01:34:00.444Z,318.32
2019-01-26T01:39:08.201Z,332.87
2019-01-26T01:44:15.812Z,322.91
2019-01-26T01:49:23.485Z,324.01
2019-01-26T01:54:31.129Z,332.41
2019-01-26T01:59:38.862Z,315.98
2019-01-26T02:04:46.472Z,335.37
2019-01-26T02:09:54.124Z,330.14
2019-01-26T02:15:01.793Z,331.12
2019-01-26T02:20:09.521Z,332.24
2019-01-26T02:25:17.121Z,318.19
2019-01-26T02:30:24.751Z,309.74
2019-01-26T02:35:32.369Z,322.28
2019-01-26T02:40:40.058Z,315.45
2019-01-26T02:45:47.712Z,308.95
2019-01-26T02:50:55.352Z,324.58
2019-01-26T02:56:02.990Z,291.82
2019-01-26T03:01:10.608Z,286.62
2019-01-26T03:06:18.297Z,301.73
2019-01-26T03:11:25.929Z,308.03
2019-01-26T03:16:33.588Z,309.32
2019-01-26T03:21:41.232Z,289.59
2019-01-26T03:26:48.957Z,303.51
2019-01-26T03:31:56.565Z,296.59
2019-01-26T03:37:04.284Z,300.26
2019-01-26T03:42:11.905Z,314.67
2019-01-26T03:47:19.586Z,292.81
2019-01-26T03:52:27.190Z,297.44
2019-01-26T03:57:34.874Z,270.73
2019-01-26T04:02:42.496Z,226.16
2019-01-26T04:07:50.202Z,220.47
2019-01-26T04:12:57.813Z,212.48
2019-01-26T04:18:05.474Z,214.25
2019-01-26T04:23:13.073Z,222.04
2019-01-26T04:28:20.738Z,202.98
2019-01-26T04:33:28.369Z,176.51
2019-01-26T04:38:36.091Z,179.62
2019-01-26T04:43:43.730Z,183.90
2019-01-26T04:48:51.365Z,195.43
2019-01-26T04:53:59.002Z,179.16
2019-01-26T04:59:06.676Z,188.83
2019-01-26T05:04:14.300Z,206.42
2019-01-26T05:09:21.937Z,164.45
2019-01-26T05:14:29.549Z,143.17
2019-01-26T05:19:37.253Z,147.65
2019-01-26T05:24:44.860Z,165.27
2019-01-26T05:29:52.530Z,148.53
2019-01-26T05:35:00.173Z,121.89
2019-01-26T05:40:07.862Z,123.65
2019-01-26T05:45:15.500Z,123.53
2019-01-26T05:50:23.183Z,133.59
2019-01-26T05:55:30.819Z,126.66
2019-01-26T06:00:38.513Z,130.12
2019-01-26T06:05:46.177Z,122.92
2019-01-26T06:10:53.873Z,139.79
2019-01-26T06:16:01.516Z,122.12
2019-01-26T06:21:09.176Z,129.66
2019-01-26T06:26:16.799Z,134.91
2019-01-26T06:31:24.457Z,134.66
2019-01-26T06:36:32.110Z,139.52
2019-01-26T06:41:39.758Z,150.15
2019-01-26T06:46:47.377Z,144.15
2019-01-26T06:51:55.096Z,164.73
2019-01-26T06:57:02.744Z,161.85
2019-01-26T07:02:10.426Z,140.21
2019-01-26T07:07:18.062Z,141.05
2019-01-26T07:12:25.721Z,154.06
2019-01-26T07:17:33.402Z,148.58
2019-01-26T07:22:41.253Z,142.96
2019-01-26T07:27:48.889Z,159.60
2019-01-26T07:32:57.100Z,136.39
2019-01-26T07:38:04.714Z,138.14
2019-01-26T07:43:12.452Z,140.29
2019-01-26T07:48:20.256Z,157.65
2019-01-26T07:53:28.008Z,130.97
2019-01-26T07:58:35.629Z,135.35
2019-01-26T08:03:43.344Z,136.62
2019-01-26T08:08:50.968Z,135.32
2019-01-26T08:13:58.857Z,130.20
2019-01-26T08:19:06.502Z,132.09
2019-01-26T08:24:14.154Z,129.47
2019-01-26T08:29:21.804Z,126.67
2019-01-26T08:34:29.450Z,135.63
2019-01-26T08:39:37.124Z,115.92
2019-01-26T08:44:44.792Z,121.66
2019-01-26T08:49:52.437Z,114.02
2019-01-26T08:55:00.191Z,107.69
2019-01-26T09:00:07.805Z,102.20
2019-01-26T09:05:19.215Z,104.49
2019-01-26T09:10:16.805Z,96.82
2019-01-26T09:15:24.550Z,90.92
2019-01-26T09:20:35.712Z,86.44
2019-01-26T09:25:39.981Z,87.65
2019-01-26T09:30:37.613Z,83.89
2019-01-26T09:35:45.240Z,81.94
2019-01-26T09:40:52.856Z,76.71
2019-01-26T09:46:00.538Z,75.82
2019-01-26T09:51:08.167Z,72.30
2019-01-26T09:56:15.889Z,71.53
2019-01-26T10:01:23.537Z,66.35
2019-01-26T10:06:31.249Z,61.18
2019-01-26T10:11:38.896Z,57.87
2019-01-26T10:16:46.649Z,55.27
2019-01-26T10:21:54.281Z,56.91
2019-01-26T10:27:01.921Z,47.64
2019-01-26T10:32:09.546Z,49.61
2019-01-26T10:37:17.205Z,43.84
2019-01-26T10:42:24.828Z,46.78
2019-01-26T10:47:32.490Z,46.53
2019-01-26T10:52:40.132Z,45.49
2019-01-26T10:57:47.856Z,44.46
2019-01-26T11:02:55.491Z,39.40
2019-01-26T11:08:03.128Z,37.57
2019-01-26T11:13:10.768Z,32.52
2019-01-26T11:18:18.401Z,29.17
2019-01-26T11:23:26.101Z,26.95
2019-01-26T11:28:33.750Z,29.94
2019-01-26T11:33:41.446Z,27.20
2019-01-26T11:38:49.067Z,25.34
2019-01-26T11:43:56.744Z,26.31
2019-01-26T11:49:04.390Z,18.73
2019-01-26T11:54:12.060Z,18.26
2019-01-26T11:59:19.677Z,15.24
2019-01-26T12:04:27.446Z,18.14
2019-01-26T12:09:35.049Z,14.60
2019-01-26T12:14:42.765Z,16.21
2019-01-26T12:19:50.376Z,18.59
2019-01-26T12:24:58.104Z,17.19
2019-01-26T12:30:05.734Z,18.73
2019-01-26T12:35:13.396Z,21.67
2019-01-26T12:40:21.021Z,22.44
2019-01-26T12:45:28.705Z,22.42
2019-01-26T12:50:36.339Z,21.37
2019-01-26T12:55:44.013Z,19.00
2019-01-26T13:00:51.661Z,18.13
2019-01-26T13:05:59.405Z,16.28
2019-01-26T13:11:07.062Z,16.61
2019-01-26T13:16:14.788Z,17.38
2019-01-26T13:21:22.489Z,15.43
2019-01-26T13:26:30.204Z,15.07
2019-01-26T13:31:37.849Z,13.83
2019-01-26T13:36:45.556Z,11.78
2019-01-26T13:41:53.212Z,16.15
2019-01-26T13:47:00.941Z,16.79
2019-01-26T13:52:11.596Z,18.19
2019-01-26T13:57:09.318Z,14.44
2019-01-26T14:02:16.948Z,13.92
2019-01-26T14:07:24.660Z,11.53
2019-01-26T14:12:32.277Z,10.66
2019-01-26T14:17:39.932Z,10.19
2019-01-26T14:22:47.581Z,10.04
2019-01-26T14:27:55.190Z,8.64
2019-01-26T14:33:02.808Z,9.12
2019-01-26T14:38:10.433Z,7.13
2019-01-26T14:43:18.100Z,6.79
2019-01-26T14:48:25.773Z,6.59
2019-01-26T14:53:33.408Z,6.46
2019-01-26T14:58:41.674Z,8.33
2019-01-26T15:03:49.335Z,7.54
2019-01-26T15:08:56.952Z,8.74
2019-01-26T15:14:04.640Z,8.38
2019-01-26T15:19:12.294Z,8.19
2019-01-26T15:24:19.943Z,8.23
2019-01-26T15:29:27.584Z,9.27
2019-01-26T15:34:35.216Z,8.58
2019-01-26T15:39:42.896Z,10.02
2019-01-26T15:44:50.540Z,10.65
2019-01-26T15:49:58.214Z,12.31
2019-01-26T15:55:05.847Z,10.61
2019-01-26T16:00:13.506Z,12.34
2019-01-26T16:05:21.129Z,12.18
2019-01-26T16:10:28.760Z,12.69
2019-01-26T16:15:36.406Z,12.54
2019-01-26T16:20:44.126Z,13.97
2019-01-26T16:25:51.748Z,13.72
2019-01-26T16:30:59.389Z,13.17
2019-01-26T16:36:07.045Z,12.09
2019-01-26T16:41:14.700Z,13.82
2019-01-26T16:46:22.321Z,15.13
2019-01-26T16:51:30.019Z,22.37
2019-01-26T16:56:37.651Z,17.49
2019-01-26T17:01:45.337Z,17.22
2019-01-26T17:06:52.977Z,17.14
2019-01-26T17:12:00.696Z,16.71
2019-01-26T17:17:08.325Z,17.95
2019-01-26T17:22:16.017Z,19.04
2019-01-26T17:27:23.666Z,20.01
2019-01-26T17:32:31.317Z,21.46
2019-01-26T17:37:38.967Z,24.18
2019-01-26T17:42:46.632Z,24.20
2019-01-26T17:47:54.360Z,23.46
2019-01-26T17:53:02.049Z,25.13
2019-01-26T17:58:10.008Z,24.22
2019-01-26T18:03:17.803Z,23.71
2019-01-26T18:08:25.443Z,22.88
2019-01-26T18:13:33.097Z,23.33
2019-01-26T18:18:40.746Z,24.10
2019-01-26T18:23:48.550Z,22.24
2019-01-26T18:28:56.205Z,23.26
2019-01-26T18:34:03.963Z,21.32
2019-01-26T18:39:11.645Z,21.10
2019-01-26T18:44:19.352Z,19.09
2019-01-26T18:49:26.975Z,35.31
2019-01-26T18:54:34.768Z,44.08
2019-01-26T18:59:42.421Z,45.94
2019-01-26T19:04:50.166Z,18.75
2019-01-26T19:09:57.812Z,17.41
2019-01-26T19:15:05.465Z,20.98
2019-01-26T19:20:13.144Z,17.63
2019-01-26T19:25:20.784Z,16.55
2019-01-26T19:30:28.439Z,15.61
2019-01-26T19:35:36.145Z,16.98
2019-01-26T19:40:43.857Z,16.02
2019-01-26T19:45:51.516Z,14.67
2019-01-26T19:50:59.205Z,14.34
2019-01-26T19:56:06.835Z,13.61
2019-01-26T20:01:14.654Z,13.65
2019-01-26T20:06:22.328Z,12.51
2019-01-26T20:11:30.033Z,14.30
2019-01-26T20:16:37.659Z,13.14
2019-01-26T20:21:45.402Z,14.53
2019-01-26T20:26:53.109Z,13.35
2019-01-26T20:32:00.796Z,13.05
2019-01-26T20:37:08.433Z,13.50
2019-01-26T20:42:16.140Z,12.93
2019-01-26T20:47:23.793Z,13.73
2019-01-26T20:52:31.559Z,13.93
2019-01-26T20:57:39.347Z,12.21
2019-01-26T21:02:47.309Z,12.82
2019-01-26T21:07:55.004Z,12.67
2019-01-26T21:13:02.660Z,11.75
2019-01-26T21:18:10.305Z,11.98
2019-01-26T21:23:17.916Z,13.30
2019-01-26T21:28:25.624Z,11.28
2019-01-26T21:33:33.277Z,11.29
2019-01-26T21:38:40.974Z,10.85
2019-01-26T21:43:48.641Z,10.59
2019-01-26T21:48:56.346Z,10.00
2019-01-26T21:54:03.972Z,10.05
2019-01-26T21:59:11.692Z,10.27
2019-01-26T22:04:19.374Z,10.57
2019-01-26T22:09:27.052Z,11.71
2019-01-26T22:14:35.669Z,10.76
2019-01-26T22:19:41.995Z,9.74
2019-01-26T22:24:49.690Z,10.07
2019-01-26T22:29:57.326Z,10.52
2019-01-26T22:35:05.032Z,10.46
2019-01-26T22:40:12.705Z,9.92
2019-01-26T22:45:20.395Z,8.84
2019-01-26T22:50:28.096Z,8.13
2019-01-26T22:55:35.748Z,8.90
2019-01-26T23:00:43.357Z,8.08
2019-01-26T23:05:51.115Z,7.34
2019-01-26T23:10:58.764Z,7.55
2019-01-26T23:16:06.492Z,6.86
2019-01-26T23:21:14.182Z,6.57
2019-01-26T23:26:21.889Z,6.12
2019-01-26T23:31:29.594Z,5.92
2019-01-26T23:36:37.274Z,6.08
2019-01-26T23:41:44.962Z,6.43
2019-01-26T23:46:52.641Z,7.58
2019-01-26T23:52:00.378Z,7.68
2019-01-26T23:57:07.869Z,6.72
